createdAt,value
2019-02-28T00:01:32.088Z,11.27
2019-02-28T00:04:02.211Z,10.40
2019-02-28T00:06:31.779Z,10.53
2019-02-28T00:09:01.571Z,10.57
2019-02-28T00:11:31.302Z,10.27
2019-02-28T00:14:01.063Z,11.33
2019-02-28T00:16:30.563Z,10.27
2019-02-28T00:19:00.478Z,10.97
2019-02-28T00:21:30.208Z,11.27
2019-02-28T00:23:59.903Z,11.80
2019-02-28T00:26:29.588Z,12.50
2019-02-28T00:29:00.465Z,12.80
2019-02-28T00:31:30.814Z,14.40
2019-02-28T00:34:04.574Z,14.10
2019-02-28T00:36:31.975Z,14.80
2019-02-28T00:39:01.598Z,14.23
2019-02-28T00:41:31.251Z,13.20
2019-02-28T00:44:01.058Z,15.30
2019-02-28T00:46:30.580Z,12.00
2019-02-28T00:49:00.307Z,14.07
2019-02-28T00:51:30.781Z,14.63
2019-02-28T00:54:00.614Z,16.30
2019-02-28T00:56:30.250Z,15.20
2019-02-28T00:59:00.467Z,14.63
2019-02-28T01:01:30.922Z,16.37
2019-02-28T01:04:00.662Z,16.57
2019-02-28T01:06:30.371Z,17.10
2019-02-28T01:09:00.357Z,17.60
2019-02-28T01:11:30.082Z,17.40
2019-02-28T01:14:01.633Z,19.10
2019-02-28T01:16:31.074Z,17.33
2019-02-28T01:19:00.771Z,18.43
2019-02-28T01:21:30.416Z,18.13
2019-02-28T01:24:00.852Z,16.77
2019-02-28T01:26:31.483Z,17.03
2019-02-28T01:29:01.865Z,17.77
2019-02-28T01:31:32.537Z,17.70
2019-02-28T01:34:02.175Z,18.70
2019-02-28T01:36:31.890Z,18.03
2019-02-28T01:39:01.498Z,17.60
2019-02-28T01:41:31.110Z,18.40
2019-02-28T01:44:02.716Z,16.10
2019-02-28T01:46:32.715Z,17.37
2019-02-28T01:49:02.248Z,19.50
2019-02-28T01:56:31.087Z,16.27
2019-02-28T01:59:00.698Z,17.35
2019-02-28T02:01:30.996Z,16.40
2019-02-28T02:04:01.353Z,16.90
2019-02-28T02:06:31.271Z,16.47
2019-02-28T02:09:01.045Z,15.87
2019-02-28T02:11:31.034Z,17.50
2019-02-28T02:14:00.787Z,16.60
2019-02-28T02:16:30.644Z,18.90
2019-02-28T02:19:00.420Z,16.20
2019-02-28T02:21:31.517Z,16.80
2019-02-28T02:24:01.580Z,17.07
2019-02-28T02:26:31.334Z,17.03
2019-02-28T02:29:01.859Z,17.07
2019-02-28T02:31:31.765Z,17.37
2019-02-28T02:34:01.310Z,16.77
2019-02-28T02:36:31.027Z,18.00
2019-02-28T02:39:00.628Z,17.10
2019-02-28T02:41:33.309Z,19.13
2019-02-28T02:44:01.431Z,17.70
2019-02-28T02:46:31.059Z,17.47
2019-02-28T02:49:00.867Z,17.67
2019-02-28T02:51:31.383Z,20.17
2019-02-28T02:54:00.986Z,19.00
2019-02-28T02:56:30.694Z,17.47
2019-02-28T02:59:02.146Z,18.63
2019-02-28T03:01:31.623Z,18.80
2019-02-28T03:04:01.211Z,18.27
2019-02-28T03:06:30.947Z,18.93
2019-02-28T03:09:00.574Z,18.13
2019-02-28T03:11:30.289Z,19.53
2019-02-28T03:14:00.127Z,18.23
2019-02-28T03:16:33.060Z,19.33
2019-02-28T03:19:01.254Z,18.47
2019-02-28T03:21:31.035Z,17.40
2019-02-28T03:24:00.638Z,19.00
2019-02-28T03:26:30.256Z,18.57
2019-02-28T03:28:59.844Z,17.67
2019-02-28T03:31:29.532Z,17.70
2019-02-28T03:34:10.561Z,18.37
2019-02-28T03:36:30.476Z,19.10
2019-02-28T03:39:00.212Z,19.20
2019-02-28T03:41:29.931Z,18.30
2019-02-28T03:43:59.683Z,20.27
2019-02-28T03:46:29.499Z,18.53
2019-02-28T03:48:59.072Z,20.23
2019-02-28T03:51:29.601Z,17.90
2019-02-28T03:53:59.486Z,21.63
2019-02-28T03:56:29.256Z,19.93
2019-02-28T03:58:58.971Z,18.57
2019-02-28T04:01:28.655Z,18.43
2019-02-28T04:03:58.384Z,20.20
2019-02-28T04:06:28.059Z,20.93
2019-02-28T04:08:57.680Z,22.30
2019-02-28T04:11:31.376Z,19.70
2019-02-28T04:13:58.476Z,20.13
2019-02-28T04:16:28.187Z,19.30
2019-02-28T04:18:57.988Z,19.77
2019-02-28T04:21:27.674Z,19.67
2019-02-28T04:23:57.309Z,19.07
2019-02-28T04:26:29.705Z,20.63
2019-02-28T04:28:58.234Z,20.47
2019-02-28T04:31:27.975Z,19.37
2019-02-28T04:33:57.719Z,21.60
2019-02-28T04:36:27.573Z,20.47
2019-02-28T04:38:57.237Z,22.50
2019-02-28T04:41:26.855Z,20.93
2019-02-28T04:43:56.710Z,21.07
2019-02-28T04:46:28.359Z,22.53
2019-02-28T04:48:57.939Z,20.63
2019-02-28T04:51:27.602Z,22.47
2019-02-28T04:53:57.315Z,21.40
2019-02-28T04:56:26.999Z,21.80
2019-02-28T04:58:59.599Z,20.50
2019-02-28T05:01:27.934Z,22.97
2019-02-28T05:03:59.137Z,20.37
2019-02-28T05:06:28.891Z,20.73
2019-02-28T05:08:58.595Z,22.20
2019-02-28T05:11:30.731Z,23.10
2019-02-28T05:13:59.523Z,22.00
2019-02-28T05:16:29.210Z,20.87
2019-02-28T05:19:01.525Z,23.00
2019-02-28T05:21:30.225Z,19.87
2019-02-28T05:23:59.878Z,21.63
2019-02-28T05:26:29.476Z,22.93
2019-02-28T05:28:59.222Z,21.57
2019-02-28T05:31:29.099Z,24.40
2019-02-28T05:33:58.831Z,21.00
2019-02-28T05:36:28.392Z,23.67
2019-02-28T05:39:17.263Z,24.53
2019-02-28T05:41:49.463Z,25.57
2019-02-28T05:44:21.409Z,23.30
2019-02-28T05:46:51.336Z,23.97
2019-02-28T05:49:21.150Z,28.30
2019-02-28T05:51:50.851Z,27.83
2019-02-28T05:54:20.743Z,27.30
2019-02-28T05:56:50.359Z,26.60
2019-02-28T05:59:19.950Z,26.93
2019-02-28T06:01:49.534Z,31.40
2019-02-28T06:04:19.159Z,26.07
2019-02-28T06:06:51.300Z,27.90
2019-02-28T06:09:20.349Z,27.50
2019-02-28T06:11:50.094Z,25.73
2019-02-28T06:14:19.822Z,28.57
2019-02-28T06:16:49.514Z,29.23
2019-02-28T06:19:20.363Z,31.07
2019-02-28T06:21:50.216Z,29.77
2019-02-28T06:24:20.339Z,32.60
2019-02-28T06:26:50.287Z,33.60
2019-02-28T06:29:19.888Z,32.53
2019-02-28T06:31:49.509Z,31.27
2019-02-28T06:34:19.233Z,33.10
2019-02-28T06:36:49.094Z,33.50
2019-02-28T06:39:38.154Z,33.37
2019-02-28T06:42:07.762Z,32.67
2019-02-28T06:44:37.456Z,32.17
2019-02-28T06:47:07.230Z,34.57
2019-02-28T06:49:40.878Z,36.30
2019-02-28T06:52:08.308Z,36.33
2019-02-28T06:54:39.923Z,35.07
2019-02-28T06:57:09.363Z,37.40
2019-02-28T06:59:39.738Z,37.70
2019-02-28T07:02:09.577Z,36.00
2019-02-28T07:04:39.363Z,35.00
2019-02-28T07:07:10.177Z,36.20
2019-02-28T07:09:40.478Z,35.00
2019-02-28T07:12:10.359Z,37.50
2019-02-28T07:14:40.090Z,39.43
2019-02-28T07:17:10.769Z,39.30
2019-02-28T07:19:41.479Z,37.10
2019-02-28T07:39:40.373Z,34.20
2019-02-28T07:42:08.222Z,31.47
2019-02-28T07:44:38.081Z,34.70
2019-02-28T07:47:08.020Z,33.07
2019-02-28T07:49:37.809Z,33.67
2019-02-28T15:46:08.582Z,25.95
2019-02-28T15:48:38.363Z,27.57
2019-02-28T15:51:08.406Z,29.00
2019-02-28T15:56:13.322Z,28.03
2019-02-28T15:58:41.372Z,25.80
2019-02-28T16:01:09.928Z,28.50
2019-02-28T16:03:39.643Z,27.03
2019-02-28T16:06:09.331Z,23.70
2019-02-28T16:08:41.940Z,21.57
2019-02-28T16:11:10.621Z,24.13
2019-02-28T16:13:43.475Z,22.90
2019-02-28T16:16:13.231Z,21.67
2019-02-28T16:18:44.074Z,22.37
2019-02-28T16:21:14.614Z,23.13
2019-02-28T16:23:44.640Z,20.53
2019-02-28T16:26:14.346Z,19.17
2019-02-28T16:28:44.185Z,18.77
2019-02-28T16:31:14.007Z,20.17
2019-02-28T16:33:43.776Z,19.30
2019-02-28T16:36:13.450Z,18.70
2019-02-28T16:38:45.079Z,18.43
2019-02-28T16:41:15.008Z,19.83
2019-02-28T16:43:44.876Z,21.00
2019-02-28T16:46:15.471Z,20.27
2019-02-28T16:48:45.989Z,19.80
2019-02-28T16:51:15.851Z,18.80
2019-02-28T16:53:47.994Z,17.77
2019-02-28T16:56:21.677Z,15.60
2019-02-28T16:58:53.786Z,17.30
